LEAS 201000Z 09006KT 020V160 9999 FEW014 18/12 Q1017 TEMPO 3000 BR